sensor_id;sensor_type;location;lat;lon;timestamp;noise_LAeq;noise_LA_min;noise_LA_max;noise_LA01;noise_LA95
37163;Laerm;23057;48.554;14.454;2023-07-20T00:01:41;53.79;51.25;62.95;;
37163;Laerm;23057;48.554;14.454;2023-07-20T00:04:15;52.84;50.30;61.40;;
37163;Laerm;23057;48.554;14.454;2023-07-20T00:06:46;52.28;49.90;61.46;;
37163;Laerm;23057;48.554;14.454;2023-07-20T00:09:16;52.29;49.85;59.61;;
37163;Laerm;23057;48.554;14.454;2023-07-20T00:11:52;52.23;49.87;60.48;;
37163;Laerm;23057;48.554;14.454;2023-07-20T00:14:23;51.81;49.77;59.09;;
37163;Laerm;23057;48.554;14.454;2023-07-20T00:16:56;51.98;49.78;60.51;;
37163;Laerm;23057;48.554;14.454;2023-07-20T00:19:28;52.31;49.90;61.64;;
37163;Laerm;23057;48.554;14.454;2023-07-20T00:21:59;52.14;49.73;59.33;;
37163;Laerm;23057;48.554;14.454;2023-07-20T00:24:30;50.81;49.36;60.24;;
37163;Laerm;23057;48.554;14.454;2023-07-20T00:27:02;52.00;49.41;61.12;;
37163;Laerm;23057;48.554;14.454;2023-07-20T00:29:33;52.10;49.59;60.58;;
37163;Laerm;23057;48.554;14.454;2023-07-20T00:32:04;52.07;49.57;60.71;;
37163;Laerm;23057;48.554;14.454;2023-07-20T00:34:35;52.01;49.51;61.78;;
37163;Laerm;23057;48.554;14.454;2023-07-20T00:37:06;51.94;49.63;59.92;;
37163;Laerm;23057;48.554;14.454;2023-07-20T00:39:37;51.75;49.52;60.30;;
37163;Laerm;23057;48.554;14.454;2023-07-20T00:42:09;52.03;49.56;61.22;;
37163;Laerm;23057;48.554;14.454;2023-07-20T00:44:40;51.83;49.51;61.79;;
37163;Laerm;23057;48.554;14.454;2023-07-20T00:47:11;51.96;49.50;61.15;;
37163;Laerm;23057;48.554;14.454;2023-07-20T00:49:43;51.83;49.51;59.04;;
37163;Laerm;23057;48.554;14.454;2023-07-20T00:52:14;51.85;49.71;60.97;;
37163;Laerm;23057;48.554;14.454;2023-07-20T00:54:47;51.73;49.46;61.08;;
37163;Laerm;23057;48.554;14.454;2023-07-20T00:57:19;52.03;49.87;61.67;;
37163;Laerm;23057;48.554;14.454;2023-07-20T00:59:50;51.87;49.58;61.04;;
37163;Laerm;23057;48.554;14.454;2023-07-20T01:02:21;51.81;49.69;60.43;;
37163;Laerm;23057;48.554;14.454;2023-07-20T01:04:51;51.59;49.44;59.06;;
37163;Laerm;23057;48.554;14.454;2023-07-20T01:08:00;51.81;49.66;61.01;;
37163;Laerm;23057;48.554;14.454;2023-07-20T01:10:41;52.14;49.36;61.36;;
37163;Laerm;23057;48.554;14.454;2023-07-20T01:13:15;51.92;49.44;60.87;;
37163;Laerm;23057;48.554;14.454;2023-07-20T01:15:57;52.07;49.33;61.78;;
37163;Laerm;23057;48.554;14.454;2023-07-20T01:18:31;52.43;49.84;61.77;;
37163;Laerm;23057;48.554;14.454;2023-07-20T01:21:20;52.49;49.25;61.25;;
37163;Laerm;23057;48.554;14.454;2023-07-20T01:33:20;53.43;49.71;61.49;;
37163;Laerm;23057;48.554;14.454;2023-07-20T01:35:58;53.83;50.48;62.20;;
37163;Laerm;23057;48.554;14.454;2023-07-20T01:38:30;53.56;50.68;61.33;;
37163;Laerm;23057;48.554;14.454;2023-07-20T01:41:02;53.51;50.19;61.42;;
37163;Laerm;23057;48.554;14.454;2023-07-20T01:43:34;53.37;50.03;60.98;;
37163;Laerm;23057;48.554;14.454;2023-07-20T01:46:05;53.44;50.06;61.53;;
37163;Laerm;23057;48.554;14.454;2023-07-20T01:48:36;53.01;50.85;61.43;;
37163;Laerm;23057;48.554;14.454;2023-07-20T01:51:07;53.14;50.20;61.19;;
37163;Laerm;23057;48.554;14.454;2023-07-20T01:53:37;52.96;50.59;62.43;;
37163;Laerm;23057;48.554;14.454;2023-07-20T01:56:08;52.86;50.75;60.79;;
37163;Laerm;23057;48.554;14.454;2023-07-20T01:58:40;52.93;50.55;61.76;;
37163;Laerm;23057;48.554;14.454;2023-07-20T02:01:10;53.13;51.09;62.44;;
37163;Laerm;23057;48.554;14.454;2023-07-20T02:03:41;53.08;50.85;60.35;;
37163;Laerm;23057;48.554;14.454;2023-07-20T02:06:12;53.41;51.08;60.72;;
37163;Laerm;23057;48.554;14.454;2023-07-20T02:08:43;53.83;51.12;61.41;;
37163;Laerm;23057;48.554;14.454;2023-07-20T02:11:14;53.77;51.18;60.10;;
37163;Laerm;23057;48.554;14.454;2023-07-20T02:13:45;53.94;51.46;61.69;;
37163;Laerm;23057;48.554;14.454;2023-07-20T02:16:15;53.36;50.77;60.03;;
37163;Laerm;23057;48.554;14.454;2023-07-20T02:18:46;53.26;50.74;60.13;;
37163;Laerm;23057;48.554;14.454;2023-07-20T02:21:17;53.45;50.57;59.89;;
37163;Laerm;23057;48.554;14.454;2023-07-20T02:23:48;53.56;51.00;61.55;;
37163;Laerm;23057;48.554;14.454;2023-07-20T02:26:19;53.55;50.77;61.54;;
37163;Laerm;23057;48.554;14.454;2023-07-20T02:28:50;53.62;50.71;61.97;;
37163;Laerm;23057;48.554;14.454;2023-07-20T02:31:21;53.71;51.03;62.01;;
37163;Laerm;23057;48.554;14.454;2023-07-20T02:33:52;54.70;51.40;62.54;;
37163;Laerm;23057;48.554;14.454;2023-07-20T02:36:23;53.79;51.65;60.45;;
37163;Laerm;23057;48.554;14.454;2023-07-20T02:38:53;54.59;51.97;61.10;;
37163;Laerm;23057;48.554;14.454;2023-07-20T02:41:25;54.29;51.83;60.92;;
37163;Laerm;23057;48.554;14.454;2023-07-20T02:43:56;54.48;52.41;60.97;;
37163;Laerm;23057;48.554;14.454;2023-07-20T02:46:27;54.22;51.63;60.70;;
37163;Laerm;23057;48.554;14.454;2023-07-20T02:49:00;54.53;51.92;61.83;;
37163;Laerm;23057;48.554;14.454;2023-07-20T02:51:31;54.88;52.13;60.54;;
37163;Laerm;23057;48.554;14.454;2023-07-20T02:54:03;54.79;52.03;62.75;;
37163;Laerm;23057;48.554;14.454;2023-07-20T02:56:34;54.91;51.59;62.43;;
37163;Laerm;23057;48.554;14.454;2023-07-20T02:59:05;54.11;51.75;61.55;;
37163;Laerm;23057;48.554;14.454;2023-07-20T03:01:36;53.76;51.08;61.24;;
37163;Laerm;23057;48.554;14.454;2023-07-20T03:04:07;52.81;50.38;60.28;;
37163;Laerm;23057;48.554;14.454;2023-07-20T03:06:39;52.50;50.63;59.45;;
37163;Laerm;23057;48.554;14.454;2023-07-20T03:09:10;52.60;50.23;60.16;;
37163;Laerm;23057;48.554;14.454;2023-07-20T03:11:41;52.01;49.79;60.71;;
37163;Laerm;23057;48.554;14.454;2023-07-20T03:14:12;51.00;49.41;56.32;;
37163;Laerm;23057;48.554;14.454;2023-07-20T03:16:44;51.04;49.81;55.44;;
37163;Laerm;23057;48.554;14.454;2023-07-20T03:19:15;50.91;49.46;53.58;;
37163;Laerm;23057;48.554;14.454;2023-07-20T03:21:46;50.97;49.46;54.02;;
37163;Laerm;23057;48.554;14.454;2023-07-20T03:24:17;50.91;49.70;54.06;;
37163;Laerm;23057;48.554;14.454;2023-07-20T03:26:48;50.92;49.60;55.32;;
37163;Laerm;23057;48.554;14.454;2023-07-20T03:29:18;50.86;49.34;54.01;;
37163;Laerm;23057;48.554;14.454;2023-07-20T03:31:49;50.84;49.58;54.46;;
37163;Laerm;23057;48.554;14.454;2023-07-20T03:34:21;51.01;49.51;55.01;;
37163;Laerm;23057;48.554;14.454;2023-07-20T03:36:51;50.97;49.55;54.45;;
37163;Laerm;23057;48.554;14.454;2023-07-20T03:39:23;50.80;49.45;54.40;;
37163;Laerm;23057;48.554;14.454;2023-07-20T03:41:54;50.96;49.43;55.35;;
37163;Laerm;23057;48.554;14.454;2023-07-20T03:44:24;51.37;49.70;55.10;;
37163;Laerm;23057;48.554;14.454;2023-07-20T03:46:55;51.37;49.96;55.16;;
37163;Laerm;23057;48.554;14.454;2023-07-20T03:49:26;51.67;49.71;58.21;;
37163;Laerm;23057;48.554;14.454;2023-07-20T03:51:57;51.68;49.92;55.84;;
37163;Laerm;23057;48.554;14.454;2023-07-20T03:54:28;52.54;50.62;55.60;;
37163;Laerm;23057;48.554;14.454;2023-07-20T03:56:59;52.39;51.00;55.76;;
37163;Laerm;23057;48.554;14.454;2023-07-20T03:59:31;52.20;50.56;55.19;;
37163;Laerm;23057;48.554;14.454;2023-07-20T04:02:02;52.40;50.24;56.31;;
37163;Laerm;23057;48.554;14.454;2023-07-20T04:04:32;53.45;51.32;57.42;;
37163;Laerm;23057;48.554;14.454;2023-07-20T04:07:03;54.10;52.09;58.10;;
37163;Laerm;23057;48.554;14.454;2023-07-20T04:09:34;54.83;51.84;58.69;;
37163;Laerm;23057;48.554;14.454;2023-07-20T04:12:06;55.47;52.97;58.99;;
37163;Laerm;23057;48.554;14.454;2023-07-20T04:14:37;55.01;49.90;60.04;;
37163;Laerm;23057;48.554;14.454;2023-07-20T04:17:08;54.87;49.89;62.61;;
37163;Laerm;23057;48.554;14.454;2023-07-20T04:19:39;61.14;52.72;62.95;;
37163;Laerm;23057;48.554;14.454;2023-07-20T04:22:10;61.24;51.82;65.27;;
37163;Laerm;23057;48.554;14.454;2023-07-20T04:24:42;61.00;50.68;64.07;;
37163;Laerm;23057;48.554;14.454;2023-07-20T04:27:13;59.45;51.50;65.88;;
37163;Laerm;23057;48.554;14.454;2023-07-20T04:29:44;58.13;51.33;70.10;;
37163;Laerm;23057;48.554;14.454;2023-07-20T04:32:15;58.49;51.11;73.87;;
37163;Laerm;23057;48.554;14.454;2023-07-20T04:34:46;59.14;51.59;63.14;;
37163;Laerm;23057;48.554;14.454;2023-07-20T04:37:16;58.34;52.17;64.03;;
37163;Laerm;23057;48.554;14.454;2023-07-20T04:39:47;58.86;51.22;64.73;;
37163;Laerm;23057;48.554;14.454;2023-07-20T04:42:18;58.93;51.51;77.05;;
37163;Laerm;23057;48.554;14.454;2023-07-20T04:44:49;59.88;51.91;73.43;;
37163;Laerm;23057;48.554;14.454;2023-07-20T04:47:19;59.43;51.70;67.32;;
37163;Laerm;23057;48.554;14.454;2023-07-20T04:49:50;56.98;51.08;67.19;;
37163;Laerm;23057;48.554;14.454;2023-07-20T04:52:21;57.63;51.30;65.95;;
37163;Laerm;23057;48.554;14.454;2023-07-20T04:54:52;56.08;51.08;64.67;;
37163;Laerm;23057;48.554;14.454;2023-07-20T04:57:24;56.53;51.03;68.89;;
37163;Laerm;23057;48.554;14.454;2023-07-20T04:59:55;54.21;51.13;59.55;;
37163;Laerm;23057;48.554;14.454;2023-07-20T05:02:25;54.00;50.64;58.57;;
37163;Laerm;23057;48.554;14.454;2023-07-20T05:04:56;52.79;50.52;59.00;;
37163;Laerm;23057;48.554;14.454;2023-07-20T05:07:27;53.77;50.71;59.34;;
37163;Laerm;23057;48.554;14.454;2023-07-20T05:09:58;54.01;50.90;60.25;;
37163;Laerm;23057;48.554;14.454;2023-07-20T05:12:29;54.07;51.64;58.25;;
37163;Laerm;23057;48.554;14.454;2023-07-20T05:15:00;54.22;51.51;58.97;;
37163;Laerm;23057;48.554;14.454;2023-07-20T05:17:31;53.78;51.25;59.38;;
37163;Laerm;23057;48.554;14.454;2023-07-20T05:20:02;54.54;51.72;59.35;;
37163;Laerm;23057;48.554;14.454;2023-07-20T05:22:36;54.83;52.61;60.08;;
37163;Laerm;23057;48.554;14.454;2023-07-20T05:25:11;55.15;52.13;59.57;;
37163;Laerm;23057;48.554;14.454;2023-07-20T05:27:42;55.05;52.09;59.52;;
37163;Laerm;23057;48.554;14.454;2023-07-20T05:30:13;55.53;52.42;63.63;;
37163;Laerm;23057;48.554;14.454;2023-07-20T05:32:44;56.14;53.32;60.25;;
37163;Laerm;23057;48.554;14.454;2023-07-20T05:35:21;56.61;53.88;61.88;;
37163;Laerm;23057;48.554;14.454;2023-07-20T05:37:53;56.51;53.81;60.80;;
37163;Laerm;23057;48.554;14.454;2023-07-20T05:40:23;56.18;53.35;59.93;;
37163;Laerm;23057;48.554;14.454;2023-07-20T05:42:54;56.09;52.89;61.11;;
37163;Laerm;23057;48.554;14.454;2023-07-20T05:45:27;55.04;52.76;58.63;;
37163;Laerm;23057;48.554;14.454;2023-07-20T05:47:58;54.79;52.04;61.95;;
37163;Laerm;23057;48.554;14.454;2023-07-20T05:50:29;54.66;51.97;61.71;;
37163;Laerm;23057;48.554;14.454;2023-07-20T05:53:00;55.16;52.79;58.79;;
37163;Laerm;23057;48.554;14.454;2023-07-20T05:55:31;55.46;52.70;59.49;;
37163;Laerm;23057;48.554;14.454;2023-07-20T05:58:02;56.20;53.73;59.98;;
37163;Laerm;23057;48.554;14.454;2023-07-20T06:00:34;57.45;54.65;61.09;;
37163;Laerm;23057;48.554;14.454;2023-07-20T06:03:05;56.92;53.35;61.17;;
37163;Laerm;23057;48.554;14.454;2023-07-20T06:05:36;56.10;53.45;59.68;;
37163;Laerm;23057;48.554;14.454;2023-07-20T06:08:07;56.95;53.47;60.93;;
37163;Laerm;23057;48.554;14.454;2023-07-20T06:10:38;56.02;53.35;59.23;;
37163;Laerm;23057;48.554;14.454;2023-07-20T06:13:09;55.64;53.04;59.22;;
37163;Laerm;23057;48.554;14.454;2023-07-20T06:15:39;54.98;52.67;59.54;;
37163;Laerm;23057;48.554;14.454;2023-07-20T06:18:11;54.54;52.27;57.98;;
37163;Laerm;23057;48.554;14.454;2023-07-20T06:20:42;53.94;51.92;57.51;;
37163;Laerm;23057;48.554;14.454;2023-07-20T06:23:14;52.86;50.41;57.49;;
37163;Laerm;23057;48.554;14.454;2023-07-20T06:25:45;51.89;50.13;56.15;;
37163;Laerm;23057;48.554;14.454;2023-07-20T06:28:16;51.52;49.88;56.38;;
37163;Laerm;23057;48.554;14.454;2023-07-20T06:30:47;51.29;49.82;55.32;;
37163;Laerm;23057;48.554;14.454;2023-07-20T06:33:17;51.11;49.65;55.50;;
37163;Laerm;23057;48.554;14.454;2023-07-20T06:35:48;51.60;49.75;55.33;;
37163;Laerm;23057;48.554;14.454;2023-07-20T06:38:20;51.76;49.71;55.75;;
37163;Laerm;23057;48.554;14.454;2023-07-20T06:40:51;51.30;49.79;53.99;;
37163;Laerm;23057;48.554;14.454;2023-07-20T06:43:22;51.32;49.67;54.95;;
37163;Laerm;23057;48.554;14.454;2023-07-20T06:45:53;51.20;49.72;54.65;;
37163;Laerm;23057;48.554;14.454;2023-07-20T06:48:24;50.99;49.38;54.17;;
37163;Laerm;23057;48.554;14.454;2023-07-20T06:50:55;50.95;49.49;54.34;;
37163;Laerm;23057;48.554;14.454;2023-07-20T06:53:26;50.86;49.33;54.29;;
37163;Laerm;23057;48.554;14.454;2023-07-20T06:55:57;51.04;49.40;53.47;;
37163;Laerm;23057;48.554;14.454;2023-07-20T06:58:28;51.03;49.55;53.97;;
37163;Laerm;23057;48.554;14.454;2023-07-20T07:00:59;51.83;49.33;54.48;;
37163;Laerm;23057;48.554;14.454;2023-07-20T07:03:30;51.55;49.45;56.54;;
37163;Laerm;23057;48.554;14.454;2023-07-20T07:06:01;51.58;49.55;54.93;;
37163;Laerm;23057;48.554;14.454;2023-07-20T07:08:32;52.20;49.60;55.14;;
37163;Laerm;23057;48.554;14.454;2023-07-20T07:11:02;51.78;49.63;54.86;;
37163;Laerm;23057;48.554;14.454;2023-07-20T07:13:33;52.41;49.97;56.27;;
37163;Laerm;23057;48.554;14.454;2023-07-20T07:16:05;51.43;49.82;56.90;;
37163;Laerm;23057;48.554;14.454;2023-07-20T07:18:35;51.56;49.59;54.37;;
37163;Laerm;23057;48.554;14.454;2023-07-20T07:21:06;51.43;49.87;55.86;;
37163;Laerm;23057;48.554;14.454;2023-07-20T07:23:39;51.45;49.64;55.83;;
37163;Laerm;23057;48.554;14.454;2023-07-20T07:26:10;51.42;49.40;55.83;;
37163;Laerm;23057;48.554;14.454;2023-07-20T07:28:41;51.83;49.74;56.16;;
37163;Laerm;23057;48.554;14.454;2023-07-20T07:31:12;52.08;49.87;56.06;;
37163;Laerm;23057;48.554;14.454;2023-07-20T07:33:42;52.12;50.27;56.14;;
37163;Laerm;23057;48.554;14.454;2023-07-20T07:36:13;52.40;50.48;55.87;;
37163;Laerm;23057;48.554;14.454;2023-07-20T07:38:44;52.32;50.26;55.30;;
37163;Laerm;23057;48.554;14.454;2023-07-20T07:41:15;52.21;49.95;55.21;;
37163;Laerm;23057;48.554;14.454;2023-07-20T07:43:46;52.02;50.28;56.27;;
37163;Laerm;23057;48.554;14.454;2023-07-20T07:46:17;52.29;50.08;55.95;;
37163;Laerm;23057;48.554;14.454;2023-07-20T07:48:48;52.88;50.45;56.10;;
37163;Laerm;23057;48.554;14.454;2023-07-20T07:51:19;53.32;51.08;56.72;;
37163;Laerm;23057;48.554;14.454;2023-07-20T07:53:50;53.29;50.91;57.09;;
37163;Laerm;23057;48.554;14.454;2023-07-20T07:56:21;53.26;50.86;56.11;;
37163;Laerm;23057;48.554;14.454;2023-07-20T07:58:53;53.66;51.37;57.79;;
37163;Laerm;23057;48.554;14.454;2023-07-20T08:01:24;53.98;51.30;57.45;;
37163;Laerm;23057;48.554;14.454;2023-07-20T08:03:54;53.79;51.60;57.62;;
37163;Laerm;23057;48.554;14.454;2023-07-20T08:06:25;53.58;51.38;56.29;;
37163;Laerm;23057;48.554;14.454;2023-07-20T08:08:57;53.26;51.20;56.76;;
37163;Laerm;23057;48.554;14.454;2023-07-20T08:11:27;52.61;50.52;57.15;;
37163;Laerm;23057;48.554;14.454;2023-07-20T08:14:01;52.91;51.09;57.09;;
37163;Laerm;23057;48.554;14.454;2023-07-20T08:16:32;52.81;50.95;56.49;;
37163;Laerm;23057;48.554;14.454;2023-07-20T08:19:02;52.96;50.87;57.27;;
37163;Laerm;23057;48.554;14.454;2023-07-20T08:21:33;53.05;51.06;56.55;;
37163;Laerm;23057;48.554;14.454;2023-07-20T08:24:04;53.24;51.23;56.27;;
37163;Laerm;23057;48.554;14.454;2023-07-20T08:26:35;53.60;51.26;57.58;;
37163;Laerm;23057;48.554;14.454;2023-07-20T08:29:06;53.35;50.74;56.33;;
37163;Laerm;23057;48.554;14.454;2023-07-20T08:31:37;53.79;51.83;57.43;;
37163;Laerm;23057;48.554;14.454;2023-07-20T08:34:07;54.18;51.97;58.23;;
37163;Laerm;23057;48.554;14.454;2023-07-20T08:36:38;53.68;51.74;56.80;;
37163;Laerm;23057;48.554;14.454;2023-07-20T08:39:09;53.09;50.78;59.05;;
37163;Laerm;23057;48.554;14.454;2023-07-20T08:41:46;53.20;51.22;56.60;;
37163;Laerm;23057;48.554;14.454;2023-07-20T08:44:17;53.37;51.49;57.19;;
37163;Laerm;23057;48.554;14.454;2023-07-20T08:46:49;53.37;51.26;56.46;;
37163;Laerm;23057;48.554;14.454;2023-07-20T08:49:21;53.18;51.13;57.18;;
37163;Laerm;23057;48.554;14.454;2023-07-20T08:51:53;53.51;51.44;57.09;;
37163;Laerm;23057;48.554;14.454;2023-07-20T08:54:30;53.19;51.25;56.24;;
37163;Laerm;23057;48.554;14.454;2023-07-20T08:57:06;53.22;51.45;57.69;;
37163;Laerm;23057;48.554;14.454;2023-07-20T08:59:38;53.07;50.98;55.93;;
37163;Laerm;23057;48.554;14.454;2023-07-20T09:02:16;53.12;51.30;56.11;;
37163;Laerm;23057;48.554;14.454;2023-07-20T09:04:49;53.34;51.16;56.50;;
37163;Laerm;23057;48.554;14.454;2023-07-20T09:07:20;53.10;51.13;55.94;;
37163;Laerm;23057;48.554;14.454;2023-07-20T09:09:52;53.15;51.28;57.05;;
37163;Laerm;23057;48.554;14.454;2023-07-20T09:12:22;53.59;51.45;57.68;;
37163;Laerm;23057;48.554;14.454;2023-07-20T09:14:57;53.47;51.09;56.80;;
37163;Laerm;23057;48.554;14.454;2023-07-20T09:17:28;54.24;51.99;57.68;;
37163;Laerm;23057;48.554;14.454;2023-07-20T09:20:03;54.03;52.02;57.08;;
37163;Laerm;23057;48.554;14.454;2023-07-20T09:22:44;54.15;52.31;57.04;;
37163;Laerm;23057;48.554;14.454;2023-07-20T09:25:18;54.23;52.04;57.93;;
37163;Laerm;23057;48.554;14.454;2023-07-20T09:27:52;54.09;52.28;57.17;;
37163;Laerm;23057;48.554;14.454;2023-07-20T09:30:26;54.37;52.41;57.96;;
37163;Laerm;23057;48.554;14.454;2023-07-20T09:32:58;54.83;52.98;57.94;;
37163;Laerm;23057;48.554;14.454;2023-07-20T09:35:29;54.36;52.50;58.50;;
37163;Laerm;23057;48.554;14.454;2023-07-20T09:38:01;54.42;52.47;57.76;;
37163;Laerm;23057;48.554;14.454;2023-07-20T09:40:38;54.29;52.31;57.67;;
37163;Laerm;23057;48.554;14.454;2023-07-20T09:43:11;54.64;52.48;57.59;;
37163;Laerm;23057;48.554;14.454;2023-07-20T09:45:43;54.24;51.79;58.03;;
37163;Laerm;23057;48.554;14.454;2023-07-20T09:48:14;54.20;52.54;57.65;;
37163;Laerm;23057;48.554;14.454;2023-07-20T09:50:51;54.53;52.26;58.41;;
37163;Laerm;23057;48.554;14.454;2023-07-20T09:53:25;53.95;52.22;57.07;;
37163;Laerm;23057;48.554;14.454;2023-07-20T09:55:58;54.06;52.41;57.31;;
37163;Laerm;23057;48.554;14.454;2023-07-20T09:58:33;54.06;52.29;57.60;;
37163;Laerm;23057;48.554;14.454;2023-07-20T10:01:08;53.94;51.67;57.99;;
37163;Laerm;23057;48.554;14.454;2023-07-20T10:03:45;53.97;51.91;57.85;;
37163;Laerm;23057;48.554;14.454;2023-07-20T10:06:24;53.91;52.27;61.95;;
37163;Laerm;23057;48.554;14.454;2023-07-20T10:09:03;54.83;52.90;58.31;;
37163;Laerm;23057;48.554;14.454;2023-07-20T10:11:36;55.17;53.22;58.42;;
37163;Laerm;23057;48.554;14.454;2023-07-20T10:14:18;54.76;52.41;62.95;;
37163;Laerm;23057;48.554;14.454;2023-07-20T10:17:01;54.90;53.02;58.21;;
37163;Laerm;23057;48.554;14.454;2023-07-20T10:19:47;55.03;52.30;57.88;;
37163;Laerm;23057;48.554;14.454;2023-07-20T10:22:27;54.40;52.48;57.61;;
37163;Laerm;23057;48.554;14.454;2023-07-20T10:25:01;54.52;52.84;57.73;;
37163;Laerm;23057;48.554;14.454;2023-07-20T10:27:32;54.65;52.82;57.61;;
37163;Laerm;23057;48.554;14.454;2023-07-20T10:30:04;55.15;52.84;57.78;;
37163;Laerm;23057;48.554;14.454;2023-07-20T10:32:36;55.00;52.37;58.18;;
37163;Laerm;23057;48.554;14.454;2023-07-20T10:35:18;55.26;52.63;61.82;;
37163;Laerm;23057;48.554;14.454;2023-07-20T10:38:01;55.27;52.63;58.11;;
37163;Laerm;23057;48.554;14.454;2023-07-20T10:40:38;55.33;52.08;61.60;;
37163;Laerm;23057;48.554;14.454;2023-07-20T10:43:10;55.40;52.38;57.78;;
37163;Laerm;23057;48.554;14.454;2023-07-20T10:45:53;55.00;52.09;58.21;;
37163;Laerm;23057;48.554;14.454;2023-07-20T10:48:25;55.42;52.09;58.48;;
37163;Laerm;23057;48.554;14.454;2023-07-20T10:51:14;55.95;52.37;62.28;;
37163;Laerm;23057;48.554;14.454;2023-07-20T10:53:50;56.42;52.85;59.31;;
37163;Laerm;23057;48.554;14.454;2023-07-20T10:56:26;56.04;52.72;63.01;;
37163;Laerm;23057;48.554;14.454;2023-07-20T10:59:01;56.34;52.98;58.90;;
37163;Laerm;23057;48.554;14.454;2023-07-20T11:01:49;55.88;52.98;58.43;;
37163;Laerm;23057;48.554;14.454;2023-07-20T11:04:47;55.47;52.70;58.62;;
37163;Laerm;23057;48.554;14.454;2023-07-20T11:07:37;54.45;51.52;62.51;;
37163;Laerm;23057;48.554;14.454;2023-07-20T11:10:15;53.38;51.03;56.69;;
37163;Laerm;23057;48.554;14.454;2023-07-20T11:18:29;53.06;51.12;57.62;;
37163;Laerm;23057;48.554;14.454;2023-07-20T11:21:01;53.29;51.30;56.43;;
37163;Laerm;23057;48.554;14.454;2023-07-20T11:23:34;53.21;51.13;56.28;;
37163;Laerm;23057;48.554;14.454;2023-07-20T11:26:05;53.14;51.29;56.50;;
37163;Laerm;23057;48.554;14.454;2023-07-20T11:28:36;53.52;50.99;57.06;;
37163;Laerm;23057;48.554;14.454;2023-07-20T11:31:07;53.33;51.51;57.30;;
37163;Laerm;23057;48.554;14.454;2023-07-20T11:33:38;53.47;51.56;57.12;;
37163;Laerm;23057;48.554;14.454;2023-07-20T11:36:09;53.52;51.36;57.41;;
37163;Laerm;23057;48.554;14.454;2023-07-20T11:38:43;53.22;51.20;56.75;;
37163;Laerm;23057;48.554;14.454;2023-07-20T11:41:16;53.21;51.30;57.02;;
37163;Laerm;23057;48.554;14.454;2023-07-20T11:43:47;53.48;51.13;57.54;;
37163;Laerm;23057;48.554;14.454;2023-07-20T11:46:18;53.56;51.28;57.02;;
37163;Laerm;23057;48.554;14.454;2023-07-20T11:48:58;53.70;51.95;57.39;;
37163;Laerm;23057;48.554;14.454;2023-07-20T11:51:31;53.39;50.85;56.58;;
37163;Laerm;23057;48.554;14.454;2023-07-20T11:54:05;53.22;51.17;56.73;;
37163;Laerm;23057;48.554;14.454;2023-07-20T11:56:41;53.38;51.44;56.84;;
37163;Laerm;23057;48.554;14.454;2023-07-20T11:59:13;53.39;51.16;56.73;;
37163;Laerm;23057;48.554;14.454;2023-07-20T12:01:45;53.43;51.40;57.71;;
37163;Laerm;23057;48.554;14.454;2023-07-20T12:04:16;53.48;51.12;57.39;;
37163;Laerm;23057;48.554;14.454;2023-07-20T12:06:47;53.52;51.32;56.84;;
37163;Laerm;23057;48.554;14.454;2023-07-20T12:09:18;53.71;51.14;57.31;;
37163;Laerm;23057;48.554;14.454;2023-07-20T12:11:50;54.26;52.25;57.47;;
37163;Laerm;23057;48.554;14.454;2023-07-20T12:14:25;55.43;52.04;59.33;;
37163;Laerm;23057;48.554;14.454;2023-07-20T12:16:55;55.68;53.14;59.31;;
37163;Laerm;23057;48.554;14.454;2023-07-20T12:19:26;55.99;53.63;58.58;;
37163;Laerm;23057;48.554;14.454;2023-07-20T12:21:58;56.35;53.06;59.34;;
37163;Laerm;23057;48.554;14.454;2023-07-20T12:24:32;55.59;53.38;59.20;;
37163;Laerm;23057;48.554;14.454;2023-07-20T12:27:04;55.57;53.46;58.33;;
37163;Laerm;23057;48.554;14.454;2023-07-20T12:29:35;55.19;52.44;63.30;;
37163;Laerm;23057;48.554;14.454;2023-07-20T12:32:07;55.42;53.12;58.46;;
37163;Laerm;23057;48.554;14.454;2023-07-20T12:34:38;54.98;52.95;57.89;;
37163;Laerm;23057;48.554;14.454;2023-07-20T12:37:09;54.78;52.79;58.13;;
37163;Laerm;23057;48.554;14.454;2023-07-20T12:39:40;55.12;52.88;58.25;;
37163;Laerm;23057;48.554;14.454;2023-07-20T12:42:11;54.80;52.04;57.86;;
37163;Laerm;23057;48.554;14.454;2023-07-20T12:44:42;55.20;53.01;58.35;;
37163;Laerm;23057;48.554;14.454;2023-07-20T12:47:13;55.05;52.89;58.22;;
37163;Laerm;23057;48.554;14.454;2023-07-20T12:49:44;54.75;52.40;58.05;;
37163;Laerm;23057;48.554;14.454;2023-07-20T12:52:15;54.74;52.70;62.97;;
37163;Laerm;23057;48.554;14.454;2023-07-20T12:54:46;54.86;52.68;57.73;;
37163;Laerm;23057;48.554;14.454;2023-07-20T12:57:17;55.08;52.75;58.00;;
37163;Laerm;23057;48.554;14.454;2023-07-20T12:59:48;55.52;52.91;59.89;;
37163;Laerm;23057;48.554;14.454;2023-07-20T13:02:19;56.93;54.65;59.71;;
37163;Laerm;23057;48.554;14.454;2023-07-20T13:04:50;57.29;54.06;60.36;;
37163;Laerm;23057;48.554;14.454;2023-07-20T13:07:38;56.73;53.91;63.01;;
37163;Laerm;23057;48.554;14.454;2023-07-20T13:10:11;56.63;54.07;59.88;;
37163;Laerm;23057;48.554;14.454;2023-07-20T13:12:42;55.88;53.39;59.85;;
37163;Laerm;23057;48.554;14.454;2023-07-20T13:15:13;55.98;53.21;59.29;;
37163;Laerm;23057;48.554;14.454;2023-07-20T13:17:44;55.98;53.59;58.67;;
37163;Laerm;23057;48.554;14.454;2023-07-20T13:20:16;55.71;52.86;59.47;;
37163;Laerm;23057;48.554;14.454;2023-07-20T13:22:47;55.24;52.83;58.61;;
37163;Laerm;23057;48.554;14.454;2023-07-20T13:25:18;55.50;53.31;59.02;;
37163;Laerm;23057;48.554;14.454;2023-07-20T13:27:49;55.66;53.27;58.48;;
37163;Laerm;23057;48.554;14.454;2023-07-20T13:30:20;55.19;52.96;57.86;;
37163;Laerm;23057;48.554;14.454;2023-07-20T13:32:52;55.58;52.98;60.60;;
37163;Laerm;23057;48.554;14.454;2023-07-20T13:35:23;57.69;53.00;60.13;;
37163;Laerm;23057;48.554;14.454;2023-07-20T13:37:54;58.20;56.06;60.20;;
37163;Laerm;23057;48.554;14.454;2023-07-20T13:40:24;58.22;56.25;60.20;;
37163;Laerm;23057;48.554;14.454;2023-07-20T13:42:55;57.85;55.46;60.06;;
37163;Laerm;23057;48.554;14.454;2023-07-20T13:45:26;58.22;56.29;59.96;;
37163;Laerm;23057;48.554;14.454;2023-07-20T13:47:57;57.75;55.13;62.37;;
37163;Laerm;23057;48.554;14.454;2023-07-20T13:50:27;57.40;54.45;59.67;;
37163;Laerm;23057;48.554;14.454;2023-07-20T13:52:59;57.29;54.42;59.43;;
37163;Laerm;23057;48.554;14.454;2023-07-20T13:55:30;57.47;54.67;59.71;;
37163;Laerm;23057;48.554;14.454;2023-07-20T13:58:01;57.85;55.80;60.14;;
37163;Laerm;23057;48.554;14.454;2023-07-20T14:00:32;57.33;53.72;62.83;;
37163;Laerm;23057;48.554;14.454;2023-07-20T14:03:03;57.08;54.46;59.57;;
37163;Laerm;23057;48.554;14.454;2023-07-20T14:05:34;57.42;55.40;59.73;;
37163;Laerm;23057;48.554;14.454;2023-07-20T14:08:05;57.76;54.76;59.90;;
37163;Laerm;23057;48.554;14.454;2023-07-20T14:10:36;57.79;55.66;59.78;;
37163;Laerm;23057;48.554;14.454;2023-07-20T14:13:07;57.91;55.38;59.88;;
37163;Laerm;23057;48.554;14.454;2023-07-20T14:15:39;58.17;55.33;60.18;;